sensor_id;sensor_type;location;lat;lon;timestamp;P1;durP1;ratioP1;P2;durP2;ratioP2
76892;SDS011;65854;51.466;7.260;2023-02-18T00:01:08;29.10;;;14.77;;
76892;SDS011;65854;51.466;7.260;2023-02-18T00:03:38;33.85;;;16.08;;
76892;SDS011;65854;51.466;7.260;2023-02-18T00:06:12;30.90;;;15.93;;
76892;SDS011;65854;51.466;7.260;2023-02-18T00:08:40;31.20;;;15.27;;
76892;SDS011;65854;51.466;7.260;2023-02-18T00:11:06;32.75;;;15.98;;
76892;SDS011;65854;51.466;7.260;2023-02-18T00:13:32;30.27;;;15.43;;
76892;SDS011;65854;51.466;7.260;2023-02-18T00:16:02;32.30;;;15.03;;
76892;SDS011;65854;51.466;7.260;2023-02-18T00:18:28;29.95;;;14.77;;
76892;SDS011;65854;51.466;7.260;2023-02-18T00:20:54;29.48;;;14.70;;
76892;SDS011;65854;51.466;7.260;2023-02-18T00:23:20;30.93;;;15.90;;
76892;SDS011;65854;51.466;7.260;2023-02-18T00:25:45;29.08;;;13.93;;
76892;SDS011;65854;51.466;7.260;2023-02-18T00:28:11;34.00;;;15.90;;
76892;SDS011;65854;51.466;7.260;2023-02-18T00:30:40;30.20;;;14.97;;
76892;SDS011;65854;51.466;7.260;2023-02-18T00:33:06;33.20;;;14.90;;
76892;SDS011;65854;51.466;7.260;2023-02-18T00:35:32;32.37;;;15.87;;
76892;SDS011;65854;51.466;7.260;2023-02-18T00:37:58;32.30;;;15.15;;
76892;SDS011;65854;51.466;7.260;2023-02-18T00:40:23;33.00;;;15.10;;
76892;SDS011;65854;51.466;7.260;2023-02-18T00:42:49;32.38;;;15.43;;
76892;SDS011;65854;51.466;7.260;2023-02-18T00:45:14;34.40;;;16.00;;
76892;SDS011;65854;51.466;7.260;2023-02-18T00:47:40;35.83;;;16.73;;
76892;SDS011;65854;51.466;7.260;2023-02-18T00:50:06;34.50;;;17.45;;
76892;SDS011;65854;51.466;7.260;2023-02-18T00:52:32;35.83;;;16.75;;
76892;SDS011;65854;51.466;7.260;2023-02-18T00:54:58;34.33;;;15.17;;
76892;SDS011;65854;51.466;7.260;2023-02-18T00:57:23;33.13;;;15.77;;
76892;SDS011;65854;51.466;7.260;2023-02-18T00:59:49;33.70;;;15.13;;
76892;SDS011;65854;51.466;7.260;2023-02-18T01:02:14;32.13;;;15.07;;
76892;SDS011;65854;51.466;7.260;2023-02-18T01:04:40;32.83;;;15.93;;
76892;SDS011;65854;51.466;7.260;2023-02-18T01:07:05;36.97;;;16.08;;
76892;SDS011;65854;51.466;7.260;2023-02-18T01:09:31;32.72;;;15.55;;
76892;SDS011;65854;51.466;7.260;2023-02-18T01:11:56;32.63;;;14.20;;
76892;SDS011;65854;51.466;7.260;2023-02-18T01:14:22;37.45;;;15.18;;
76892;SDS011;65854;51.466;7.260;2023-02-18T01:16:48;30.03;;;13.73;;
76892;SDS011;65854;51.466;7.260;2023-02-18T01:19:13;33.58;;;14.27;;
76892;SDS011;65854;51.466;7.260;2023-02-18T01:21:39;29.03;;;12.87;;
76892;SDS011;65854;51.466;7.260;2023-02-18T01:24:05;30.87;;;14.03;;
76892;SDS011;65854;51.466;7.260;2023-02-18T01:26:30;32.80;;;13.52;;
76892;SDS011;65854;51.466;7.260;2023-02-18T01:28:56;28.17;;;12.27;;
76892;SDS011;65854;51.466;7.260;2023-02-18T01:31:21;29.80;;;12.73;;
76892;SDS011;65854;51.466;7.260;2023-02-18T01:33:47;32.60;;;14.10;;
76892;SDS011;65854;51.466;7.260;2023-02-18T01:36:12;32.07;;;13.33;;
76892;SDS011;65854;51.466;7.260;2023-02-18T01:38:38;30.73;;;13.80;;
76892;SDS011;65854;51.466;7.260;2023-02-18T01:41:04;32.57;;;14.33;;
76892;SDS011;65854;51.466;7.260;2023-02-18T01:43:30;31.63;;;13.35;;
76892;SDS011;65854;51.466;7.260;2023-02-18T01:45:58;30.55;;;12.80;;
76892;SDS011;65854;51.466;7.260;2023-02-18T01:48:41;30.42;;;12.38;;
76892;SDS011;65854;51.466;7.260;2023-02-18T01:51:12;29.73;;;12.52;;
76892;SDS011;65854;51.466;7.260;2023-02-18T01:53:50;26.45;;;11.57;;
76892;SDS011;65854;51.466;7.260;2023-02-18T01:57:10;27.10;;;11.80;;
76892;SDS011;65854;51.466;7.260;2023-02-18T01:59:23;27.00;;;11.40;;
76892;SDS011;65854;51.466;7.260;2023-02-18T02:01:54;26.75;;;12.02;;
76892;SDS011;65854;51.466;7.260;2023-02-18T02:04:20;23.23;;;10.90;;
76892;SDS011;65854;51.466;7.260;2023-02-18T02:06:46;25.52;;;10.98;;
76892;SDS011;65854;51.466;7.260;2023-02-18T02:09:12;28.90;;;12.10;;
76892;SDS011;65854;51.466;7.260;2023-02-18T02:20:00;23.60;;;10.97;;
76892;SDS011;65854;51.466;7.260;2023-02-18T02:28:38;22.33;;;9.75;;
76892;SDS011;65854;51.466;7.260;2023-02-18T02:37:13;19.05;;;8.70;;
76892;SDS011;65854;51.466;7.260;2023-02-18T02:39:54;19.45;;;8.68;;
76892;SDS011;65854;51.466;7.260;2023-02-18T02:42:34;18.90;;;8.88;;
76892;SDS011;65854;51.466;7.260;2023-02-18T02:45:08;19.42;;;8.70;;
76892;SDS011;65854;51.466;7.260;2023-02-18T02:47:48;15.93;;;7.70;;
76892;SDS011;65854;51.466;7.260;2023-02-18T02:50:39;16.73;;;7.75;;
76892;SDS011;65854;51.466;7.260;2023-02-18T02:53:17;15.55;;;7.35;;
76892;SDS011;65854;51.466;7.260;2023-02-18T02:55:47;16.35;;;7.63;;
76892;SDS011;65854;51.466;7.260;2023-02-18T02:58:13;15.03;;;7.17;;
76892;SDS011;65854;51.466;7.260;2023-02-18T03:06:22;16.75;;;7.00;;
76892;SDS011;65854;51.466;7.260;2023-02-18T03:11:30;13.43;;;6.53;;
76892;SDS011;65854;51.466;7.260;2023-02-18T03:14:18;14.02;;;6.10;;
76892;SDS011;65854;51.466;7.260;2023-02-18T03:16:57;15.50;;;6.90;;
76892;SDS011;65854;51.466;7.260;2023-02-18T03:19:34;16.25;;;6.22;;
76892;SDS011;65854;51.466;7.260;2023-02-18T03:22:26;13.90;;;6.63;;
76892;SDS011;65854;51.466;7.260;2023-02-18T03:24:55;14.65;;;6.68;;
76892;SDS011;65854;51.466;7.260;2023-02-18T03:27:23;14.65;;;6.30;;
76892;SDS011;65854;51.466;7.260;2023-02-18T03:30:15;14.55;;;6.22;;
76892;SDS011;65854;51.466;7.260;2023-02-18T03:32:45;13.93;;;6.38;;
76892;SDS011;65854;51.466;7.260;2023-02-18T03:35:15;14.82;;;6.05;;
76892;SDS011;65854;51.466;7.260;2023-02-18T03:37:44;14.48;;;6.35;;
76892;SDS011;65854;51.466;7.260;2023-02-18T03:40:17;13.68;;;6.15;;
76892;SDS011;65854;51.466;7.260;2023-02-18T03:42:43;14.35;;;6.07;;
76892;SDS011;65854;51.466;7.260;2023-02-18T03:45:09;13.90;;;6.13;;
76892;SDS011;65854;51.466;7.260;2023-02-18T03:47:34;14.45;;;5.65;;
76892;SDS011;65854;51.466;7.260;2023-02-18T03:50:00;14.13;;;5.60;;
76892;SDS011;65854;51.466;7.260;2023-02-18T03:52:26;16.50;;;6.20;;
76892;SDS011;65854;51.466;7.260;2023-02-18T03:54:51;14.33;;;5.63;;
76892;SDS011;65854;51.466;7.260;2023-02-18T03:57:17;15.80;;;6.57;;
76892;SDS011;65854;51.466;7.260;2023-02-18T03:59:42;16.23;;;6.70;;
76892;SDS011;65854;51.466;7.260;2023-02-18T04:02:08;15.93;;;6.40;;
76892;SDS011;65854;51.466;7.260;2023-02-18T04:04:33;18.40;;;7.15;;
76892;SDS011;65854;51.466;7.260;2023-02-18T04:06:59;18.47;;;7.10;;
76892;SDS011;65854;51.466;7.260;2023-02-18T04:09:25;16.90;;;7.10;;
76892;SDS011;65854;51.466;7.260;2023-02-18T04:11:50;17.58;;;6.55;;
76892;SDS011;65854;51.466;7.260;2023-02-18T04:14:16;18.23;;;7.33;;
76892;SDS011;65854;51.466;7.260;2023-02-18T04:16:41;20.88;;;8.32;;
76892;SDS011;65854;51.466;7.260;2023-02-18T04:19:07;19.77;;;7.27;;
76892;SDS011;65854;51.466;7.260;2023-02-18T04:21:33;19.02;;;6.85;;
76892;SDS011;65854;51.466;7.260;2023-02-18T04:23:59;19.58;;;6.97;;
76892;SDS011;65854;51.466;7.260;2023-02-18T04:26:25;17.45;;;6.78;;
76892;SDS011;65854;51.466;7.260;2023-02-18T04:28:50;21.40;;;6.50;;
76892;SDS011;65854;51.466;7.260;2023-02-18T04:31:16;16.73;;;6.77;;
76892;SDS011;65854;51.466;7.260;2023-02-18T04:33:42;18.17;;;6.35;;
76892;SDS011;65854;51.466;7.260;2023-02-18T04:36:07;19.20;;;7.23;;
76892;SDS011;65854;51.466;7.260;2023-02-18T04:38:33;18.45;;;6.53;;
76892;SDS011;65854;51.466;7.260;2023-02-18T04:40:58;18.93;;;7.13;;
76892;SDS011;65854;51.466;7.260;2023-02-18T04:43:24;16.83;;;6.57;;
76892;SDS011;65854;51.466;7.260;2023-02-18T04:45:50;15.93;;;6.00;;
76892;SDS011;65854;51.466;7.260;2023-02-18T04:48:15;15.30;;;5.93;;
76892;SDS011;65854;51.466;7.260;2023-02-18T04:50:41;13.15;;;4.63;;
76892;SDS011;65854;51.466;7.260;2023-02-18T04:53:08;11.63;;;4.40;;
76892;SDS011;65854;51.466;7.260;2023-02-18T04:55:33;11.50;;;4.18;;
76892;SDS011;65854;51.466;7.260;2023-02-18T04:57:59;11.50;;;4.27;;
76892;SDS011;65854;51.466;7.260;2023-02-18T05:00:24;10.73;;;3.57;;
76892;SDS011;65854;51.466;7.260;2023-02-18T05:02:52;10.38;;;3.90;;
76892;SDS011;65854;51.466;7.260;2023-02-18T05:05:18;8.33;;;2.87;;
76892;SDS011;65854;51.466;7.260;2023-02-18T05:07:43;9.90;;;3.22;;
76892;SDS011;65854;51.466;7.260;2023-02-18T05:10:09;9.27;;;2.93;;
76892;SDS011;65854;51.466;7.260;2023-02-18T05:12:38;7.68;;;2.65;;
76892;SDS011;65854;51.466;7.260;2023-02-18T05:15:04;7.35;;;2.10;;
76892;SDS011;65854;51.466;7.260;2023-02-18T05:17:30;5.53;;;1.60;;
76892;SDS011;65854;51.466;7.260;2023-02-18T05:19:56;7.05;;;1.95;;
76892;SDS011;65854;51.466;7.260;2023-02-18T05:22:21;6.50;;;1.87;;
76892;SDS011;65854;51.466;7.260;2023-02-18T05:24:47;5.70;;;1.70;;
76892;SDS011;65854;51.466;7.260;2023-02-18T05:27:12;5.10;;;1.50;;
76892;SDS011;65854;51.466;7.260;2023-02-18T05:29:38;5.28;;;1.70;;
76892;SDS011;65854;51.466;7.260;2023-02-18T05:32:04;4.95;;;1.50;;
76892;SDS011;65854;51.466;7.260;2023-02-18T05:34:29;4.60;;;1.40;;
76892;SDS011;65854;51.466;7.260;2023-02-18T05:36:55;4.60;;;1.33;;
76892;SDS011;65854;51.466;7.260;2023-02-18T05:39:20;5.43;;;1.50;;
76892;SDS011;65854;51.466;7.260;2023-02-18T05:41:46;4.90;;;1.42;;
76892;SDS011;65854;51.466;7.260;2023-02-18T05:44:11;4.70;;;1.20;;
76892;SDS011;65854;51.466;7.260;2023-02-18T05:46:56;4.03;;;1.23;;
76892;SDS011;65854;51.466;7.260;2023-02-18T05:49:27;4.50;;;1.30;;
76892;SDS011;65854;51.466;7.260;2023-02-18T05:51:54;4.57;;;1.40;;
76892;SDS011;65854;51.466;7.260;2023-02-18T05:54:19;3.78;;;1.13;;
76892;SDS011;65854;51.466;7.260;2023-02-18T05:56:45;4.60;;;1.57;;
76892;SDS011;65854;51.466;7.260;2023-02-18T05:59:11;5.03;;;1.30;;
76892;SDS011;65854;51.466;7.260;2023-02-18T06:01:36;5.07;;;1.47;;
76892;SDS011;65854;51.466;7.260;2023-02-18T06:04:02;4.90;;;1.55;;
76892;SDS011;65854;51.466;7.260;2023-02-18T06:06:28;4.70;;;1.60;;
76892;SDS011;65854;51.466;7.260;2023-02-18T06:08:54;5.60;;;1.80;;
76892;SDS011;65854;51.466;7.260;2023-02-18T06:11:19;4.75;;;1.67;;
76892;SDS011;65854;51.466;7.260;2023-02-18T06:13:45;4.97;;;1.70;;
76892;SDS011;65854;51.466;7.260;2023-02-18T06:16:10;5.10;;;1.55;;
76892;SDS011;65854;51.466;7.260;2023-02-18T06:18:36;4.50;;;1.50;;
76892;SDS011;65854;51.466;7.260;2023-02-18T06:21:02;5.18;;;1.70;;
76892;SDS011;65854;51.466;7.260;2023-02-18T06:23:27;5.30;;;1.73;;
76892;SDS011;65854;51.466;7.260;2023-02-18T06:25:53;6.05;;;1.77;;
76892;SDS011;65854;51.466;7.260;2023-02-18T06:28:18;5.30;;;1.90;;
76892;SDS011;65854;51.466;7.260;2023-02-18T06:30:44;5.73;;;1.87;;
76892;SDS011;65854;51.466;7.260;2023-02-18T06:33:10;5.68;;;2.00;;
76892;SDS011;65854;51.466;7.260;2023-02-18T06:35:36;6.28;;;2.03;;
76892;SDS011;65854;51.466;7.260;2023-02-18T06:38:02;5.33;;;1.77;;
76892;SDS011;65854;51.466;7.260;2023-02-18T06:40:28;6.68;;;2.30;;
76892;SDS011;65854;51.466;7.260;2023-02-18T06:42:53;7.17;;;2.50;;
76892;SDS011;65854;51.466;7.260;2023-02-18T06:45:19;7.30;;;2.40;;
76892;SDS011;65854;51.466;7.260;2023-02-18T06:47:45;9.27;;;2.47;;
76892;SDS011;65854;51.466;7.260;2023-02-18T06:50:11;7.70;;;2.30;;
76892;SDS011;65854;51.466;7.260;2023-02-18T06:52:36;6.83;;;2.30;;
76892;SDS011;65854;51.466;7.260;2023-02-18T06:55:05;7.32;;;2.20;;
76892;SDS011;65854;51.466;7.260;2023-02-18T06:57:33;6.03;;;1.95;;
76892;SDS011;65854;51.466;7.260;2023-02-18T06:59:59;7.20;;;2.20;;
76892;SDS011;65854;51.466;7.260;2023-02-18T07:02:25;5.30;;;1.80;;
76892;SDS011;65854;51.466;7.260;2023-02-18T07:04:51;7.20;;;2.47;;
76892;SDS011;65854;51.466;7.260;2023-02-18T07:07:17;6.30;;;2.10;;
76892;SDS011;65854;51.466;7.260;2023-02-18T07:09:42;6.07;;;1.70;;
76892;SDS011;65854;51.466;7.260;2023-02-18T07:12:08;9.07;;;2.57;;
76892;SDS011;65854;51.466;7.260;2023-02-18T07:14:34;9.73;;;2.33;;
76892;SDS011;65854;51.466;7.260;2023-02-18T07:16:59;7.63;;;2.40;;
76892;SDS011;65854;51.466;7.260;2023-02-18T07:19:25;8.77;;;2.80;;
76892;SDS011;65854;51.466;7.260;2023-02-18T07:21:51;8.00;;;2.63;;
76892;SDS011;65854;51.466;7.260;2023-02-18T07:24:18;8.70;;;2.72;;
76892;SDS011;65854;51.466;7.260;2023-02-18T07:26:43;6.18;;;2.05;;
76892;SDS011;65854;51.466;7.260;2023-02-18T07:29:09;8.37;;;2.50;;
76892;SDS011;65854;51.466;7.260;2023-02-18T07:31:35;6.88;;;1.88;;
76892;SDS011;65854;51.466;7.260;2023-02-18T07:34:02;7.25;;;2.50;;
76892;SDS011;65854;51.466;7.260;2023-02-18T07:36:27;5.97;;;1.60;;
76892;SDS011;65854;51.466;7.260;2023-02-18T07:38:53;7.90;;;2.10;;
76892;SDS011;65854;51.466;7.260;2023-02-18T07:41:19;7.03;;;2.20;;
76892;SDS011;65854;51.466;7.260;2023-02-18T07:43:46;7.80;;;2.13;;
76892;SDS011;65854;51.466;7.260;2023-02-18T07:46:12;8.13;;;2.20;;
76892;SDS011;65854;51.466;7.260;2023-02-18T07:48:38;7.00;;;2.35;;
76892;SDS011;65854;51.466;7.260;2023-02-18T07:51:07;6.60;;;2.10;;
76892;SDS011;65854;51.466;7.260;2023-02-18T07:53:34;5.53;;;1.60;;
76892;SDS011;65854;51.466;7.260;2023-02-18T07:56:00;5.10;;;1.60;;
76892;SDS011;65854;51.466;7.260;2023-02-18T07:58:27;5.05;;;1.58;;
76892;SDS011;65854;51.466;7.260;2023-02-18T08:00:55;6.25;;;1.60;;
76892;SDS011;65854;51.466;7.260;2023-02-18T08:03:21;4.80;;;1.50;;
76892;SDS011;65854;51.466;7.260;2023-02-18T08:05:48;5.30;;;1.10;;
76892;SDS011;65854;51.466;7.260;2023-02-18T08:08:16;6.05;;;1.40;;
76892;SDS011;65854;51.466;7.260;2023-02-18T08:10:46;5.93;;;1.27;;
76892;SDS011;65854;51.466;7.260;2023-02-18T08:13:12;5.40;;;1.08;;
76892;SDS011;65854;51.466;7.260;2023-02-18T08:15:38;4.33;;;1.40;;
76892;SDS011;65854;51.466;7.260;2023-02-18T08:18:05;4.82;;;1.10;;
76892;SDS011;65854;51.466;7.260;2023-02-18T08:20:35;3.83;;;0.95;;
76892;SDS011;65854;51.466;7.260;2023-02-18T08:23:02;4.50;;;1.00;;
76892;SDS011;65854;51.466;7.260;2023-02-18T08:25:29;4.95;;;1.10;;
76892;SDS011;65854;51.466;7.260;2023-02-18T08:27:54;3.75;;;1.00;;
76892;SDS011;65854;51.466;7.260;2023-02-18T08:30:20;5.10;;;1.10;;
76892;SDS011;65854;51.466;7.260;2023-02-18T08:32:46;4.40;;;1.00;;
76892;SDS011;65854;51.466;7.260;2023-02-18T08:35:11;10.33;;;1.10;;
76892;SDS011;65854;51.466;7.260;2023-02-18T08:37:37;3.00;;;0.80;;
76892;SDS011;65854;51.466;7.260;2023-02-18T08:40:03;3.83;;;0.80;;
76892;SDS011;65854;51.466;7.260;2023-02-18T08:42:29;4.55;;;0.88;;
76892;SDS011;65854;51.466;7.260;2023-02-18T08:44:55;2.90;;;0.70;;
76892;SDS011;65854;51.466;7.260;2023-02-18T08:47:20;3.90;;;0.80;;
76892;SDS011;65854;51.466;7.260;2023-02-18T08:49:46;2.47;;;0.70;;
76892;SDS011;65854;51.466;7.260;2023-02-18T08:52:12;2.67;;;0.80;;
76892;SDS011;65854;51.466;7.260;2023-02-18T08:54:37;4.00;;;0.80;;
76892;SDS011;65854;51.466;7.260;2023-02-18T08:57:03;2.70;;;0.80;;
76892;SDS011;65854;51.466;7.260;2023-02-18T08:59:28;5.30;;;1.23;;
76892;SDS011;65854;51.466;7.260;2023-02-18T09:01:54;4.78;;;1.27;;
76892;SDS011;65854;51.466;7.260;2023-02-18T09:04:20;6.50;;;1.47;;
76892;SDS011;65854;51.466;7.260;2023-02-18T09:06:46;8.38;;;1.77;;
76892;SDS011;65854;51.466;7.260;2023-02-18T09:09:13;4.70;;;1.52;;
76892;SDS011;65854;51.466;7.260;2023-02-18T09:11:39;8.98;;;1.85;;
76892;SDS011;65854;51.466;7.260;2023-02-18T09:14:05;6.85;;;1.58;;
76892;SDS011;65854;51.466;7.260;2023-02-18T09:16:31;8.13;;;1.70;;
76892;SDS011;65854;51.466;7.260;2023-02-18T09:18:56;10.77;;;1.67;;
76892;SDS011;65854;51.466;7.260;2023-02-18T09:21:23;9.05;;;1.90;;
76892;SDS011;65854;51.466;7.260;2023-02-18T09:23:49;11.30;;;1.92;;
76892;SDS011;65854;51.466;7.260;2023-02-18T09:26:15;7.00;;;1.90;;
76892;SDS011;65854;51.466;7.260;2023-02-18T09:28:45;6.93;;;1.48;;
76892;SDS011;65854;51.466;7.260;2023-02-18T09:31:13;5.00;;;1.42;;
76892;SDS011;65854;51.466;7.260;2023-02-18T09:33:42;7.32;;;1.50;;
76892;SDS011;65854;51.466;7.260;2023-02-18T09:36:09;8.23;;;1.90;;
76892;SDS011;65854;51.466;7.260;2023-02-18T09:38:35;9.73;;;2.30;;
76892;SDS011;65854;51.466;7.260;2023-02-18T09:41:02;8.80;;;1.80;;
76892;SDS011;65854;51.466;7.260;2023-02-18T09:43:33;9.18;;;1.80;;
76892;SDS011;65854;51.466;7.260;2023-02-18T09:46:08;8.75;;;2.10;;
76892;SDS011;65854;51.466;7.260;2023-02-18T09:48:52;7.50;;;1.92;;
76892;SDS011;65854;51.466;7.260;2023-02-18T09:51:18;7.03;;;1.70;;
76892;SDS011;65854;51.466;7.260;2023-02-18T09:53:44;7.70;;;2.25;;
76892;SDS011;65854;51.466;7.260;2023-02-18T09:56:15;11.10;;;2.30;;
76892;SDS011;65854;51.466;7.260;2023-02-18T09:58:46;6.72;;;1.80;;
76892;SDS011;65854;51.466;7.260;2023-02-18T10:01:22;9.93;;;2.00;;
76892;SDS011;65854;51.466;7.260;2023-02-18T10:03:55;9.50;;;2.20;;
76892;SDS011;65854;51.466;7.260;2023-02-18T10:06:25;8.68;;;1.95;;
76892;SDS011;65854;51.466;7.260;2023-02-18T10:08:54;10.13;;;2.17;;
76892;SDS011;65854;51.466;7.260;2023-02-18T10:11:28;8.65;;;2.20;;
76892;SDS011;65854;51.466;7.260;2023-02-18T10:13:56;15.33;;;3.03;;
76892;SDS011;65854;51.466;7.260;2023-02-18T10:16:24;9.75;;;2.58;;
76892;SDS011;65854;51.466;7.260;2023-02-18T10:18:52;10.23;;;2.20;;
76892;SDS011;65854;51.466;7.260;2023-02-18T10:21:23;11.82;;;2.72;;
76892;SDS011;65854;51.466;7.260;2023-02-18T10:26:29;9.55;;;2.47;;
76892;SDS011;65854;51.466;7.260;2023-02-18T10:28:57;11.50;;;2.63;;
76892;SDS011;65854;51.466;7.260;2023-02-18T10:31:26;11.15;;;1.98;;
76892;SDS011;65854;51.466;7.260;2023-02-18T10:36:32;12.32;;;2.45;;
76892;SDS011;65854;51.466;7.260;2023-02-18T10:39:17;12.35;;;2.42;;
76892;SDS011;65854;51.466;7.260;2023-02-18T10:45:15;12.77;;;2.53;;
76892;SDS011;65854;51.466;7.260;2023-02-18T10:50:54;11.05;;;2.60;;
76892;SDS011;65854;51.466;7.260;2023-02-18T10:53:33;15.57;;;3.00;;
76892;SDS011;65854;51.466;7.260;2023-02-18T10:56:02;11.30;;;2.63;;
76892;SDS011;65854;51.466;7.260;2023-02-18T11:01:05;9.35;;;2.67;;
76892;SDS011;65854;51.466;7.260;2023-02-18T11:03:38;13.18;;;2.45;;
76892;SDS011;65854;51.466;7.260;2023-02-18T11:06:08;11.40;;;2.85;;
76892;SDS011;65854;51.466;7.260;2023-02-18T11:08:43;10.35;;;2.53;;
76892;SDS011;65854;51.466;7.260;2023-02-18T11:11:15;11.82;;;2.70;;
76892;SDS011;65854;51.466;7.260;2023-02-18T11:13:51;14.00;;;3.20;;
76892;SDS011;65854;51.466;7.260;2023-02-18T11:16:35;18.10;;;3.63;;
76892;SDS011;65854;51.466;7.260;2023-02-18T11:19:02;11.75;;;3.17;;
76892;SDS011;65854;51.466;7.260;2023-02-18T11:21:29;12.48;;;3.20;;
76892;SDS011;65854;51.466;7.260;2023-02-18T11:24:05;12.10;;;3.47;;
76892;SDS011;65854;51.466;7.260;2023-02-18T11:26:33;11.13;;;3.13;;
76892;SDS011;65854;51.466;7.260;2023-02-18T11:29:05;13.98;;;3.45;;
76892;SDS011;65854;51.466;7.260;2023-02-18T11:34:12;13.15;;;3.25;;
76892;SDS011;65854;51.466;7.260;2023-02-18T11:36:40;11.80;;;3.42;;
76892;SDS011;65854;51.466;7.260;2023-02-18T11:39:22;13.73;;;3.27;;
76892;SDS011;65854;51.466;7.260;2023-02-18T11:41:58;9.73;;;3.13;;
76892;SDS011;65854;51.466;7.260;2023-02-18T11:47:05;11.63;;;2.85;;
76892;SDS011;65854;51.466;7.260;2023-02-18T11:49:59;9.98;;;2.70;;
76892;SDS011;65854;51.466;7.260;2023-02-18T11:52:43;11.97;;;3.20;;
76892;SDS011;65854;51.466;7.260;2023-02-18T11:55:15;14.85;;;3.15;;
76892;SDS011;65854;51.466;7.260;2023-02-18T11:58:01;10.82;;;3.20;;
76892;SDS011;65854;51.466;7.260;2023-02-18T12:00:42;10.88;;;3.30;;
76892;SDS011;65854;51.466;7.260;2023-02-18T12:05:47;11.10;;;3.27;;
76892;SDS011;65854;51.466;7.260;2023-02-18T12:08:17;12.15;;;3.20;;
76892;SDS011;65854;51.466;7.260;2023-02-18T12:10:50;10.98;;;3.22;;
76892;SDS011;65854;51.466;7.260;2023-02-18T12:13:30;9.38;;;2.92;;
76892;SDS011;65854;51.466;7.260;2023-02-18T12:26:45;8.52;;;3.13;;
76892;SDS011;65854;51.466;7.260;2023-02-18T12:29:28;13.25;;;3.78;;
76892;SDS011;65854;51.466;7.260;2023-02-18T12:32:17;11.67;;;3.80;;
76892;SDS011;65854;51.466;7.260;2023-02-18T12:43:31;12.95;;;4.65;;
76892;SDS011;65854;51.466;7.260;2023-02-18T12:46:11;12.90;;;4.67;;
76892;SDS011;65854;51.466;7.260;2023-02-18T12:51:53;11.05;;;4.32;;
76892;SDS011;65854;51.466;7.260;2023-02-18T12:59:39;15.00;;;5.67;;
76892;SDS011;65854;51.466;7.260;2023-02-18T13:10:51;15.57;;;6.32;;
76892;SDS011;65854;51.466;7.260;2023-02-18T13:13:39;16.80;;;6.53;;
76892;SDS011;65854;51.466;7.260;2023-02-18T13:16:09;19.13;;;6.70;;
76892;SDS011;65854;51.466;7.260;2023-02-18T13:18:46;19.90;;;7.07;;
76892;SDS011;65854;51.466;7.260;2023-02-18T13:21:22;17.83;;;6.72;;
76892;SDS011;65854;51.466;7.260;2023-02-18T13:23:59;19.13;;;6.70;;
76892;SDS011;65854;51.466;7.260;2023-02-18T13:26:26;19.40;;;6.85;;
76892;SDS011;65854;51.466;7.260;2023-02-18T13:34:45;16.98;;;6.38;;
76892;SDS011;65854;51.466;7.260;2023-02-18T13:39:52;16.55;;;5.60;;
76892;SDS011;65854;51.466;7.260;2023-02-18T13:42:32;16.70;;;5.72;;
76892;SDS011;65854;51.466;7.260;2023-02-18T13:47:37;15.88;;;6.38;;
76892;SDS011;65854;51.466;7.260;2023-02-18T13:53:31;19.58;;;6.90;;
76892;SDS011;65854;51.466;7.260;2023-02-18T13:55:38;18.23;;;7.00;;
76892;SDS011;65854;51.466;7.260;2023-02-18T13:58:34;18.08;;;6.75;;
76892;SDS011;65854;51.466;7.260;2023-02-18T14:06:19;20.75;;;7.72;;
76892;SDS011;65854;51.466;7.260;2023-02-18T14:08:47;19.65;;;7.55;;
76892;SDS011;65854;51.466;7.260;2023-02-18T14:13:48;22.87;;;8.13;;
76892;SDS011;65854;51.466;7.260;2023-02-18T14:16:18;23.00;;;9.00;;
76892;SDS011;65854;51.466;7.260;2023-02-18T14:28:44;31.48;;;11.65;;
76892;SDS011;65854;51.466;7.260;2023-02-18T14:31:32;36.25;;;12.45;;
76892;SDS011;65854;51.466;7.260;2023-02-18T14:36:39;31.80;;;12.20;;
76892;SDS011;65854;51.466;7.260;2023-02-18T14:39:23;34.10;;;11.88;;
76892;SDS011;65854;51.466;7.260;2023-02-18T14:47:28;31.15;;;12.48;;
76892;SDS011;65854;51.466;7.260;2023-02-18T14:49:59;30.25;;;12.10;;
76892;SDS011;65854;51.466;7.260;2023-02-18T14:54:53;37.20;;;13.13;;
76892;SDS011;65854;51.466;7.260;2023-02-18T14:57:20;35.53;;;12.68;;
76892;SDS011;65854;51.466;7.260;2023-02-18T14:59:57;31.90;;;12.23;;
76892;SDS011;65854;51.466;7.260;2023-02-18T15:02:28;33.55;;;12.77;;
76892;SDS011;65854;51.466;7.260;2023-02-18T15:05:13;31.30;;;12.90;;
76892;SDS011;65854;51.466;7.260;2023-02-18T15:08:00;30.75;;;12.32;;
76892;SDS011;65854;51.466;7.260;2023-02-18T15:16:00;30.77;;;12.60;;
76892;SDS011;65854;51.466;7.260;2023-02-18T15:18:30;28.30;;;11.50;;
76892;SDS011;65854;51.466;7.260;2023-02-18T15:20:59;31.80;;;11.65;;
76892;SDS011;65854;51.466;7.260;2023-02-18T15:23:26;32.22;;;12.10;;
76892;SDS011;65854;51.466;7.260;2023-02-18T15:25:53;27.98;;;11.15;;
76892;SDS011;65854;51.466;7.260;2023-02-18T15:28:30;32.87;;;12.13;;
76892;SDS011;65854;51.466;7.260;2023-02-18T15:31:00;37.85;;;12.52;;
76892;SDS011;65854;51.466;7.260;2023-02-18T15:33:28;37.10;;;12.35;;
76892;SDS011;65854;51.466;7.260;2023-02-18T15:35:59;33.88;;;12.10;;
76892;SDS011;65854;51.466;7.260;2023-02-18T15:38:29;32.63;;;13.13;;
76892;SDS011;65854;51.466;7.260;2023-02-18T15:40:55;35.77;;;12.90;;
76892;SDS011;65854;51.466;7.260;2023-02-18T15:43:21;35.65;;;12.65;;
76892;SDS011;65854;51.466;7.260;2023-02-18T15:45:51;35.60;;;12.17;;
76892;SDS011;65854;51.466;7.260;2023-02-18T15:48:26;29.00;;;10.52;;
76892;SDS011;65854;51.466;7.260;2023-02-18T15:51:04;21.65;;;8.40;;
76892;SDS011;65854;51.466;7.260;2023-02-18T15:53:35;23.98;;;9.68;;
76892;SDS011;65854;51.466;7.260;2023-02-18T15:56:11;26.85;;;10.38;;
76892;SDS011;65854;51.466;7.260;2023-02-18T15:58:41;26.80;;;10.40;;
76892;SDS011;65854;51.466;7.260;2023-02-18T16:01:22;23.73;;;10.02;;
76892;SDS011;65854;51.466;7.260;2023-02-18T16:03:53;27.48;;;10.73;;
76892;SDS011;65854;51.466;7.260;2023-02-18T16:06:25;25.98;;;11.38;;
76892;SDS011;65854;51.466;7.260;2023-02-18T16:08:57;27.52;;;11.65;;
76892;SDS011;65854;51.466;7.260;2023-02-18T16:11:23;26.83;;;12.68;;
76892;SDS011;65854;51.466;7.260;2023-02-18T16:13:52;29.92;;;13.23;;
76892;SDS011;65854;51.466;7.260;2023-02-18T16:16:29;31.57;;;14.10;;
76892;SDS011;65854;51.466;7.260;2023-02-18T16:18:57;32.25;;;15.05;;
76892;SDS011;65854;51.466;7.260;2023-02-18T16:21:39;35.95;;;14.50;;
76892;SDS011;65854;51.466;7.260;2023-02-18T16:24:22;30.07;;;12.13;;
76892;SDS011;65854;51.466;7.260;2023-02-18T16:26:58;34.05;;;14.55;;
76892;SDS011;65854;51.466;7.260;2023-02-18T16:31:57;38.38;;;15.55;;
76892;SDS011;65854;51.466;7.260;2023-02-18T16:34:23;37.47;;;15.27;;
76892;SDS011;65854;51.466;7.260;2023-02-18T16:36:48;33.50;;;15.27;;
76892;SDS011;65854;51.466;7.260;2023-02-18T16:39:33;34.00;;;15.63;;
76892;SDS011;65854;51.466;7.260;2023-02-18T16:41:59;38.58;;;16.65;;
76892;SDS011;65854;51.466;7.260;2023-02-18T16:44:25;42.00;;;16.63;;
76892;SDS011;65854;51.466;7.260;2023-02-18T16:46:51;40.23;;;16.93;;
76892;SDS011;65854;51.466;7.260;2023-02-18T16:49:16;33.17;;;15.60;;
76892;SDS011;65854;51.466;7.260;2023-02-18T16:51:44;35.97;;;15.57;;
76892;SDS011;65854;51.466;7.260;2023-02-18T16:54:10;34.10;;;14.52;;
76892;SDS011;65854;51.466;7.260;2023-02-18T16:56:37;30.30;;;13.40;;
76892;SDS011;65854;51.466;7.260;2023-02-18T16:59:03;32.25;;;14.40;;
76892;SDS011;65854;51.466;7.260;2023-02-18T17:03:56;30.30;;;12.77;;
76892;SDS011;65854;51.466;7.260;2023-02-18T17:06:23;31.08;;;13.05;;
76892;SDS011;65854;51.466;7.260;2023-02-18T17:08:49;33.30;;;13.03;;